Sand Lake, Florida
Current Conditions -  °F | °C
As of 10:53 AM on Friday 24 Oct 2014 (Local Time) from KMCO Reporting Station
Few Clouds Few Clouds  
Wind Chill: 76°   Ceiling: Unl
Heat Index: 76°   Visibility: 10mi
Dew Point: 60°   Wind: 10mph
Humidity: 58%   Direction: 10°N
Pressure: 30"   Gusts: NA
Location:  28.4565°N, 81.4676°W
Report Text: KMCO 241453Z 01009KT 10SM FEW040 24/16 A3000 RMK AO2 SLP158 T02440156 50008 $
Loading
Personal Weather Stations






























Interactive Weather Map
Tropical Storm Tracking
New forecast layout! Learn more

10-Day Weather Forecast

Advertisements
Track Severe Weather on mobile